createdAt,value
2023-03-29T00:01:34.945Z,51.30
2023-03-29T00:04:05.484Z,50.85
2023-03-29T00:06:35.120Z,50.70
2023-03-29T00:09:06.217Z,50.47
2023-03-29T00:11:36.744Z,51.11
2023-03-29T00:14:05.568Z,50.90
2023-03-29T00:16:34.600Z,49.41
2023-03-29T00:19:04.212Z,50.12
2023-03-29T00:21:33.055Z,50.74
2023-03-29T00:24:02.170Z,49.39
2023-03-29T00:26:30.972Z,48.42
2023-03-29T00:29:02.256Z,50.86
2023-03-29T00:31:31.774Z,48.68
2023-03-29T00:34:00.770Z,48.30
2023-03-29T00:36:31.694Z,48.51
2023-03-29T00:39:00.525Z,48.95
2023-03-29T00:41:30.547Z,48.70
2023-03-29T00:44:03.333Z,49.49
2023-03-29T00:46:35.011Z,49.20
2023-03-29T00:49:09.734Z,48.71
2023-03-29T00:51:41.493Z,49.04
2023-03-29T00:54:14.870Z,49.58
2023-03-29T00:56:50.110Z,48.86
2023-03-29T00:59:24.314Z,48.98
2023-03-29T01:01:59.478Z,49.05
2023-03-29T01:04:33.982Z,47.31
2023-03-29T01:07:07.883Z,48.06
2023-03-29T01:09:40.884Z,48.06
2023-03-29T01:12:14.767Z,48.71
2023-03-29T01:14:51.457Z,48.54
2023-03-29T01:17:22.095Z,49.20
2023-03-29T01:19:58.264Z,48.25
2023-03-29T01:22:39.551Z,48.43
2023-03-29T01:25:15.557Z,47.50
2023-03-29T01:27:54.114Z,48.16
2023-03-29T01:30:28.178Z,48.66
2023-03-29T01:33:02.971Z,47.91
2023-03-29T01:35:36.083Z,48.61
2023-03-29T01:38:09.623Z,48.74
2023-03-29T01:40:38.545Z,48.99
2023-03-29T01:43:16.443Z,48.46
2023-03-29T01:45:49.032Z,48.50
2023-03-29T01:48:25.190Z,49.13
2023-03-29T01:50:56.988Z,49.07
2023-03-29T01:53:31.623Z,48.35
2023-03-29T01:56:05.835Z,49.19
2023-03-29T01:58:39.843Z,48.92
2023-03-29T02:01:13.996Z,49.39
2023-03-29T02:03:50.020Z,49.06
2023-03-29T02:06:22.620Z,48.72
2023-03-29T02:08:54.420Z,49.18
2023-03-29T02:11:26.089Z,49.16
2023-03-29T02:13:58.322Z,49.18
2023-03-29T02:16:27.771Z,48.88
2023-03-29T02:18:58.375Z,48.25
2023-03-29T02:21:32.696Z,48.27
2023-03-29T02:24:07.162Z,48.09
2023-03-29T02:26:36.356Z,48.29
2023-03-29T02:29:06.760Z,48.66
2023-03-29T02:31:39.554Z,48.51
2023-03-29T02:34:17.120Z,47.82
2023-03-29T02:36:50.543Z,47.66
2023-03-29T02:39:20.669Z,48.55
2023-03-29T02:41:52.183Z,48.54
2023-03-29T02:44:26.224Z,48.17
2023-03-29T02:46:59.241Z,48.22
2023-03-29T02:49:28.849Z,48.27
2023-03-29T02:52:07.895Z,47.96
2023-03-29T02:54:43.540Z,48.70
2023-03-29T02:57:13.548Z,48.68
2023-03-29T02:59:45.012Z,49.98
2023-03-29T03:02:15.194Z,50.22
2023-03-29T03:04:44.804Z,50.08
2023-03-29T03:07:14.404Z,49.83
2023-03-29T03:09:43.314Z,49.98
2023-03-29T03:12:12.143Z,50.72
2023-03-29T03:14:41.069Z,51.40
2023-03-29T03:17:11.310Z,51.63
2023-03-29T03:19:40.665Z,52.50
2023-03-29T03:22:10.087Z,52.62
2023-03-29T03:24:39.206Z,52.32
2023-03-29T03:27:08.615Z,52.48
2023-03-29T03:29:38.681Z,52.75
2023-03-29T03:32:38.622Z,53.04
2023-03-29T03:35:26.404Z,52.22
2023-03-29T03:37:55.362Z,52.86
2023-03-29T03:40:26.568Z,53.71
2023-03-29T03:42:57.074Z,53.90
2023-03-29T03:45:26.439Z,53.30
2023-03-29T03:48:05.752Z,52.75
2023-03-29T03:50:50.064Z,52.59
2023-03-29T03:53:20.034Z,52.52
2023-03-29T03:56:13.574Z,53.07
2023-03-29T03:59:04.190Z,54.11
2023-03-29T04:01:43.478Z,52.26
2023-03-29T04:04:20.731Z,65.84
2023-03-29T04:07:14.362Z,63.57
2023-03-29T04:10:14.738Z,56.77
2023-03-29T04:12:50.864Z,54.90
2023-03-29T04:15:20.403Z,55.02
2023-03-29T04:18:02.075Z,55.35
2023-03-29T04:20:46.001Z,53.34
2023-03-29T04:23:16.516Z,54.03
2023-03-29T04:25:46.884Z,54.20
2023-03-29T04:28:44.913Z,54.28
2023-03-29T04:31:30.282Z,53.81
2023-03-29T04:34:27.735Z,52.61
2023-03-29T04:37:00.020Z,53.18
2023-03-29T04:39:34.068Z,51.08
2023-03-29T04:42:07.045Z,51.20
2023-03-29T04:44:36.962Z,51.19
2023-03-29T04:47:11.998Z,50.63
2023-03-29T04:49:50.111Z,50.97
2023-03-29T04:52:41.019Z,50.92
2023-03-29T04:55:10.713Z,49.44
2023-03-29T04:58:04.947Z,48.20
2023-03-29T05:00:36.727Z,48.76
2023-03-29T05:03:32.031Z,47.65
2023-03-29T05:06:07.456Z,47.43
2023-03-29T05:08:40.458Z,63.58
2023-03-29T05:11:15.524Z,76.13
2023-03-29T05:13:45.542Z,82.17
2023-03-29T05:16:15.943Z,84.91
2023-03-29T05:18:45.256Z,79.99
2023-03-29T05:21:14.406Z,75.61
2023-03-29T05:23:47.610Z,76.19
2023-03-29T05:26:16.764Z,77.50
2023-03-29T05:28:51.569Z,74.08
2023-03-29T05:31:21.036Z,57.39
2023-03-29T05:33:54.274Z,52.29
2023-03-29T05:36:23.903Z,47.81
2023-03-29T05:38:55.143Z,45.73
2023-03-29T05:41:25.806Z,45.20
2023-03-29T05:44:17.892Z,42.62
2023-03-29T05:46:51.467Z,43.81
2023-03-29T05:49:21.551Z,41.45
2023-03-29T05:52:00.918Z,41.17
2023-03-29T05:54:33.018Z,41.33
2023-03-29T05:57:03.835Z,40.22
2023-03-29T05:59:33.817Z,41.13
2023-03-29T06:02:05.101Z,40.55
2023-03-29T06:04:36.724Z,39.77
2023-03-29T06:07:24.577Z,41.32
2023-03-29T06:10:31.082Z,39.30
2023-03-29T06:13:14.720Z,40.41
2023-03-29T06:15:43.611Z,45.94
2023-03-29T06:18:12.603Z,40.66
2023-03-29T06:20:41.661Z,37.79
2023-03-29T06:23:15.611Z,37.36
2023-03-29T06:25:46.934Z,37.36
2023-03-29T06:28:16.545Z,37.72
2023-03-29T06:30:47.052Z,37.65
2023-03-29T06:33:17.300Z,38.94
2023-03-29T06:36:07.612Z,39.75
2023-03-29T06:38:36.638Z,37.37
2023-03-29T06:41:28.850Z,37.34
2023-03-29T06:44:10.374Z,35.93
2023-03-29T06:46:51.185Z,35.87
2023-03-29T06:49:20.216Z,36.91
2023-03-29T06:52:18.661Z,36.15
2023-03-29T06:54:49.478Z,35.08
2023-03-29T06:57:19.877Z,37.01
2023-03-29T06:59:48.899Z,35.20
2023-03-29T07:02:22.832Z,36.40
2023-03-29T07:05:06.997Z,36.42
2023-03-29T07:08:00.382Z,36.21
2023-03-29T07:11:01.496Z,36.43
2023-03-29T07:13:51.188Z,36.39
2023-03-29T07:16:22.400Z,36.70
2023-03-29T07:18:51.302Z,36.02
2023-03-29T07:21:43.216Z,36.13
2023-03-29T07:24:13.025Z,35.01
2023-03-29T07:26:52.287Z,35.00
2023-03-29T07:29:28.735Z,35.74
2023-03-29T07:32:02.525Z,35.79
2023-03-29T07:34:43.654Z,35.46
2023-03-29T07:37:21.693Z,34.02
2023-03-29T07:39:51.009Z,34.00
2023-03-29T07:42:39.828Z,35.68
2023-03-29T07:45:16.476Z,33.49
2023-03-29T07:48:00.090Z,32.27
2023-03-29T07:50:40.482Z,32.26
2023-03-29T07:53:09.921Z,32.23
2023-03-29T07:55:43.570Z,31.95
2023-03-29T07:58:33.356Z,33.22
2023-03-29T08:01:04.269Z,33.10
2023-03-29T08:03:52.332Z,31.75
2023-03-29T08:06:26.682Z,30.95
2023-03-29T08:08:55.975Z,30.97
2023-03-29T08:11:24.863Z,31.79
2023-03-29T08:14:05.419Z,33.14
2023-03-29T08:17:04.200Z,32.16
2023-03-29T08:19:36.377Z,31.94
2023-03-29T08:22:08.175Z,32.07
2023-03-29T08:25:08.159Z,31.57
2023-03-29T08:27:43.376Z,31.32
2023-03-29T08:30:14.975Z,30.50
2023-03-29T08:32:46.898Z,30.54
2023-03-29T08:35:18.133Z,31.54
2023-03-29T08:38:02.094Z,31.00
2023-03-29T08:40:31.750Z,35.12
2023-03-29T08:43:20.955Z,33.48
2023-03-29T08:46:24.146Z,34.19
2023-03-29T08:49:00.423Z,32.61
2023-03-29T08:51:34.330Z,33.48
2023-03-29T08:54:08.924Z,33.94
2023-03-29T08:57:07.752Z,32.52
2023-03-29T08:59:41.625Z,30.68
2023-03-29T09:02:19.144Z,33.05
2023-03-29T09:04:57.633Z,32.67
2023-03-29T09:07:34.398Z,32.44
2023-03-29T09:10:04.464Z,31.77
2023-03-29T09:12:53.541Z,32.75
2023-03-29T09:15:28.826Z,33.07
2023-03-29T09:18:27.644Z,33.18
2023-03-29T09:21:03.798Z,31.30
2023-03-29T09:24:00.378Z,31.27
2023-03-29T09:27:00.312Z,31.87
2023-03-29T09:29:47.395Z,31.66
2023-03-29T09:32:22.563Z,31.53
2023-03-29T09:35:09.356Z,31.98
2023-03-29T09:37:42.600Z,31.80
2023-03-29T09:40:16.915Z,31.95
2023-03-29T09:43:15.456Z,30.53
2023-03-29T09:45:45.429Z,29.90
2023-03-29T09:48:15.995Z,30.49
2023-03-29T09:50:52.681Z,31.22
2023-03-29T09:53:23.739Z,30.71
2023-03-29T09:56:08.523Z,28.55
2023-03-29T09:58:48.057Z,29.90
2023-03-29T10:01:19.880Z,29.73
2023-03-29T10:03:53.869Z,29.21
2023-03-29T10:06:25.646Z,29.38
2023-03-29T10:09:03.689Z,27.92
2023-03-29T10:11:41.146Z,26.98
2023-03-29T10:14:17.713Z,26.60
2023-03-29T10:16:47.712Z,28.57
2023-03-29T10:19:20.711Z,26.43
2023-03-29T10:21:50.212Z,26.40
2023-03-29T10:24:24.705Z,26.67
2023-03-29T10:26:55.871Z,26.10
2023-03-29T10:29:26.136Z,25.90
2023-03-29T10:31:55.779Z,27.48
2023-03-29T10:34:28.148Z,27.54
2023-03-29T10:36:59.891Z,25.39
2023-03-29T10:39:35.421Z,26.40
2023-03-29T10:42:05.749Z,26.37
2023-03-29T10:44:36.937Z,26.27
2023-03-29T10:47:14.685Z,25.00
2023-03-29T10:49:47.043Z,26.51
2023-03-29T10:52:17.778Z,27.51
2023-03-29T10:54:48.995Z,27.34
2023-03-29T10:57:25.673Z,27.85
2023-03-29T11:00:06.916Z,25.12
2023-03-29T11:03:11.992Z,26.15
2023-03-29T11:05:50.246Z,24.12
2023-03-29T11:08:39.732Z,25.51
2023-03-29T11:11:19.349Z,25.57
2023-03-29T11:13:55.549Z,25.90
2023-03-29T11:16:33.149Z,23.27
2023-03-29T11:19:23.932Z,26.81
2023-03-29T11:21:59.372Z,24.20
2023-03-29T11:24:42.427Z,22.98
2023-03-29T11:27:24.670Z,26.22
2023-03-29T11:30:06.511Z,25.06
2023-03-29T11:32:43.770Z,24.36
2023-03-29T11:35:31.312Z,23.96
2023-03-29T11:38:06.903Z,22.96
2023-03-29T11:40:46.283Z,22.93
2023-03-29T11:43:22.218Z,22.89
2023-03-29T11:45:55.084Z,23.70
2023-03-29T11:48:29.794Z,23.04
2023-03-29T11:51:03.899Z,23.40
2023-03-29T11:53:40.994Z,24.26
2023-03-29T11:56:14.655Z,20.69
2023-03-29T11:58:50.000Z,21.38
2023-03-29T12:01:22.090Z,22.28
2023-03-29T12:03:54.872Z,23.10
2023-03-29T12:06:29.445Z,22.03
2023-03-29T12:09:04.017Z,21.62
2023-03-29T12:11:39.755Z,21.75
2023-03-29T12:14:16.723Z,20.76
2023-03-29T12:16:50.173Z,22.80
2023-03-29T12:19:22.866Z,22.41
2023-03-29T12:21:54.600Z,22.76
2023-03-29T12:24:24.248Z,20.99
2023-03-29T12:27:11.802Z,22.80
2023-03-29T12:29:53.697Z,23.47
2023-03-29T12:32:53.473Z,23.05
2023-03-29T12:36:04.555Z,24.11
2023-03-29T12:39:06.252Z,22.11
2023-03-29T12:41:53.648Z,22.16
2023-03-29T12:44:45.985Z,20.08
2023-03-29T12:47:26.715Z,19.89
2023-03-29T12:49:57.829Z,20.80
2023-03-29T12:52:31.545Z,21.13
2023-03-29T12:55:04.498Z,22.46
2023-03-29T12:57:42.021Z,21.83
2023-03-29T13:00:32.668Z,23.54
2023-03-29T13:03:03.993Z,20.36
2023-03-29T13:05:36.351Z,20.92
2023-03-29T13:08:24.439Z,21.09
2023-03-29T13:10:55.211Z,22.10
2023-03-29T13:13:28.547Z,22.12
2023-03-29T13:16:11.969Z,22.11
2023-03-29T13:18:54.946Z,21.71
2023-03-29T13:21:34.101Z,19.74
2023-03-29T13:24:19.611Z,21.30
2023-03-29T13:26:56.947Z,21.85
2023-03-29T13:29:54.232Z,21.98
2023-03-29T13:32:52.642Z,20.52
2023-03-29T13:35:32.845Z,21.11
2023-03-29T13:38:13.847Z,20.20
2023-03-29T13:40:48.668Z,20.77
2023-03-29T13:43:23.763Z,21.55
2023-03-29T13:46:17.759Z,22.73
2023-03-29T13:48:56.240Z,20.92
2023-03-29T13:51:38.988Z,20.52
2023-03-29T13:54:16.614Z,21.28
2023-03-29T13:56:59.078Z,20.33
2023-03-29T13:59:34.368Z,20.11
2023-03-29T14:02:04.292Z,21.04
2023-03-29T14:04:40.076Z,21.01
2023-03-29T14:07:10.710Z,21.82
2023-03-29T14:09:44.502Z,20.77
2023-03-29T14:12:15.978Z,20.42
2023-03-29T14:14:58.411Z,19.61
2023-03-29T14:17:29.336Z,19.96
2023-03-29T14:20:02.091Z,19.18
2023-03-29T14:22:33.396Z,18.87
2023-03-29T14:25:06.542Z,19.39
2023-03-29T14:27:37.220Z,19.10
2023-03-29T14:30:23.180Z,18.65
2023-03-29T14:32:52.538Z,18.23
2023-03-29T14:35:31.552Z,18.24
2023-03-29T14:38:02.860Z,18.65
2023-03-29T14:40:32.611Z,19.03
2023-03-29T14:43:06.789Z,18.35
2023-03-29T14:45:36.442Z,19.43
2023-03-29T14:48:06.035Z,19.61
2023-03-29T14:50:36.530Z,20.41
2023-03-29T14:53:07.400Z,19.08
2023-03-29T14:55:36.790Z,18.71
2023-03-29T14:58:19.390Z,18.70
2023-03-29T15:00:50.516Z,19.75
2023-03-29T15:03:22.890Z,19.49
2023-03-29T15:05:55.831Z,18.94
2023-03-29T15:08:34.056Z,20.04
2023-03-29T15:11:04.210Z,20.58
2023-03-29T15:13:33.150Z,20.29
2023-03-29T15:16:06.780Z,18.82
2023-03-29T15:18:40.123Z,20.33
2023-03-29T15:21:14.016Z,18.52
2023-03-29T15:23:49.073Z,18.09
2023-03-29T15:26:23.584Z,19.64
2023-03-29T15:28:55.739Z,19.41
2023-03-29T15:31:27.874Z,18.91
2023-03-29T15:34:06.340Z,20.35
2023-03-29T15:36:42.606Z,18.85
2023-03-29T15:39:13.707Z,19.09
2023-03-29T15:41:42.771Z,19.67
2023-03-29T15:44:12.065Z,19.17
2023-03-29T15:46:40.899Z,19.87
2023-03-29T15:49:12.070Z,20.42
2023-03-29T15:51:42.597Z,19.84
2023-03-29T15:54:11.713Z,19.36
2023-03-29T15:56:48.525Z,20.13
2023-03-29T15:59:18.202Z,20.28
2023-03-29T16:01:47.621Z,20.50
2023-03-29T16:04:19.291Z,19.57
2023-03-29T16:06:52.886Z,19.52
2023-03-29T16:09:22.820Z,19.83
2023-03-29T16:11:51.760Z,20.92
2023-03-29T16:14:23.279Z,20.59
2023-03-29T16:16:52.960Z,20.29
2023-03-29T16:19:22.244Z,19.83
2023-03-29T16:21:52.836Z,21.30
2023-03-29T16:24:24.213Z,21.15
2023-03-29T16:26:55.870Z,20.54
2023-03-29T16:29:25.715Z,21.20
2023-03-29T16:31:55.213Z,20.88
2023-03-29T16:34:24.721Z,22.61
2023-03-29T16:36:54.946Z,23.55
2023-03-29T16:39:24.843Z,22.51
2023-03-29T16:41:53.704Z,22.02
2023-03-29T16:44:24.645Z,22.18
2023-03-29T16:46:57.444Z,22.86
2023-03-29T16:49:26.360Z,22.94
2023-03-29T16:51:57.211Z,22.11
2023-03-29T16:54:29.700Z,21.63
2023-03-29T16:56:59.044Z,22.42
2023-03-29T16:59:28.270Z,22.99
2023-03-29T17:01:57.257Z,23.06
2023-03-29T17:04:26.410Z,24.12
2023-03-29T17:06:56.994Z,22.63
2023-03-29T17:09:28.303Z,23.19
2023-03-29T17:11:58.507Z,22.63
2023-03-29T17:14:27.325Z,24.79
2023-03-29T17:16:56.306Z,25.98
2023-03-29T17:19:25.197Z,25.56
2023-03-29T17:21:53.982Z,24.46
2023-03-29T17:24:24.253Z,23.88
2023-03-29T17:26:53.069Z,24.40
2023-03-29T17:29:21.953Z,24.62
2023-03-29T17:31:50.968Z,23.70
2023-03-29T17:34:20.700Z,24.55
2023-03-29T17:36:53.341Z,23.62
2023-03-29T17:39:22.290Z,23.28
2023-03-29T17:41:52.586Z,24.48
2023-03-29T17:44:21.786Z,24.01
2023-03-29T17:46:50.715Z,24.41
2023-03-29T17:49:19.599Z,24.58
2023-03-29T17:51:48.460Z,24.13
2023-03-29T17:54:17.462Z,25.49
2023-03-29T17:56:46.296Z,24.50
2023-03-29T17:59:16.487Z,24.97
2023-03-29T18:01:45.401Z,24.97
2023-03-29T18:04:14.273Z,25.35
2023-03-29T18:06:43.736Z,25.95
2023-03-29T18:09:13.317Z,26.14
2023-03-29T18:11:42.108Z,26.54
2023-03-29T18:14:11.002Z,26.88
2023-03-29T18:16:41.720Z,27.63
2023-03-29T18:19:11.035Z,27.68
2023-03-29T18:21:39.874Z,27.82
2023-03-29T18:24:09.078Z,28.33
2023-03-29T18:26:37.909Z,28.68
2023-03-29T18:29:09.233Z,27.87
2023-03-29T18:31:38.779Z,28.25
2023-03-29T18:34:09.000Z,31.35
2023-03-29T18:36:37.974Z,37.41
2023-03-29T18:39:06.864Z,29.48
2023-03-29T18:41:37.348Z,32.16
2023-03-29T18:44:07.763Z,28.51
2023-03-29T18:46:36.836Z,38.29
2023-03-29T18:49:05.744Z,34.10
2023-03-29T18:51:36.058Z,34.38
2023-03-29T18:54:05.509Z,30.50
2023-03-29T18:56:35.416Z,28.62
2023-03-29T18:59:06.314Z,27.96
2023-03-29T19:01:35.398Z,34.92
2023-03-29T19:04:04.908Z,29.04
2023-03-29T19:06:35.926Z,30.83
2023-03-29T19:09:06.917Z,31.97
2023-03-29T19:11:36.188Z,29.63
2023-03-29T19:14:08.360Z,32.05
2023-03-29T19:16:37.837Z,30.72
2023-03-29T19:19:07.873Z,30.62
2023-03-29T19:21:38.618Z,32.56
2023-03-29T19:24:08.449Z,31.73
2023-03-29T19:26:37.306Z,32.35
2023-03-29T19:29:06.624Z,32.51
2023-03-29T19:31:37.946Z,31.62
2023-03-29T19:34:09.664Z,33.50
2023-03-29T19:36:40.123Z,32.78
2023-03-29T19:39:08.940Z,33.05
2023-03-29T19:41:39.482Z,33.42
2023-03-29T19:44:10.316Z,33.72
2023-03-29T19:46:39.191Z,33.58
2023-03-29T19:49:08.902Z,33.85
2023-03-29T19:51:39.185Z,34.88
2023-03-29T19:54:08.409Z,35.16
2023-03-29T19:56:37.415Z,35.73
2023-03-29T19:59:06.256Z,35.03
2023-03-29T20:01:36.936Z,34.07
2023-03-29T20:04:05.806Z,34.67
2023-03-29T20:06:34.757Z,35.89
2023-03-29T20:09:07.067Z,37.16
2023-03-29T20:11:36.143Z,36.80
2023-03-29T20:14:05.637Z,35.67
2023-03-29T20:16:35.265Z,36.67
2023-03-29T20:19:05.229Z,37.17
2023-03-29T20:21:37.276Z,37.66
2023-03-29T20:24:08.695Z,37.49
2023-03-29T20:26:37.676Z,36.76
2023-03-29T20:29:07.350Z,38.26
2023-03-29T20:31:36.343Z,38.73
2023-03-29T20:34:05.285Z,40.30
2023-03-29T20:36:34.573Z,40.00
2023-03-29T20:39:04.677Z,39.34
2023-03-29T20:41:38.384Z,40.63
2023-03-29T20:44:07.332Z,40.60
2023-03-29T20:46:38.037Z,38.74
2023-03-29T20:49:08.955Z,38.60
2023-03-29T20:51:39.286Z,39.48
2023-03-29T20:54:10.093Z,40.31
2023-03-29T20:56:42.566Z,40.23
2023-03-29T20:59:12.231Z,40.33
2023-03-29T21:01:41.285Z,39.88
2023-03-29T21:04:11.157Z,40.09
2023-03-29T21:06:40.357Z,40.35
2023-03-29T21:09:27.793Z,40.28
2023-03-29T21:11:58.160Z,41.22
2023-03-29T21:14:27.001Z,41.25
2023-03-29T21:16:55.770Z,39.50
2023-03-29T21:19:24.606Z,39.78
2023-03-29T21:21:55.015Z,40.62
2023-03-29T21:24:23.946Z,41.15
2023-03-29T21:26:52.884Z,38.84
2023-03-29T21:29:23.025Z,38.37
2023-03-29T21:31:52.069Z,40.04
2023-03-29T21:34:20.910Z,41.15
2023-03-29T21:36:49.750Z,41.44
2023-03-29T21:39:18.597Z,41.92
2023-03-29T21:41:47.394Z,42.52
2023-03-29T21:44:16.474Z,42.45
2023-03-29T21:46:46.995Z,40.45
2023-03-29T21:49:16.441Z,40.76
2023-03-29T21:51:45.415Z,41.51
2023-03-29T21:54:14.265Z,40.75
2023-03-29T21:56:44.073Z,40.82
2023-03-29T21:59:12.985Z,41.46
2023-03-29T22:01:41.817Z,42.59
2023-03-29T22:04:15.691Z,42.32
2023-03-29T22:07:10.854Z,43.46
2023-03-29T22:09:41.446Z,43.60
2023-03-29T22:12:12.144Z,42.74
2023-03-29T22:14:40.980Z,43.74
2023-03-29T22:17:10.310Z,42.64
2023-03-29T22:19:41.917Z,41.91
2023-03-29T22:22:14.070Z,42.98
2023-03-29T22:24:43.323Z,43.18
2023-03-29T22:27:12.818Z,44.43
2023-03-29T22:29:41.600Z,44.57
2023-03-29T22:32:10.626Z,43.00
2023-03-29T22:34:41.212Z,42.98
2023-03-29T22:37:10.105Z,43.20
2023-03-29T22:39:38.931Z,44.65
2023-03-29T22:42:07.922Z,43.96
2023-03-29T22:44:37.008Z,45.63
2023-03-29T22:47:06.247Z,45.32
2023-03-29T22:49:35.338Z,45.47
2023-03-29T22:52:05.916Z,45.69
2023-03-29T22:54:34.772Z,45.81
2023-03-29T22:57:04.339Z,45.34
2023-03-29T22:59:33.220Z,45.03
2023-03-29T23:02:03.026Z,45.36
2023-03-29T23:04:32.742Z,45.30
2023-03-29T23:07:02.414Z,45.65
2023-03-29T23:09:32.990Z,47.20
2023-03-29T23:12:02.140Z,47.20
2023-03-29T23:14:31.002Z,47.59
2023-03-29T23:16:59.925Z,47.26
2023-03-29T23:19:31.020Z,47.38
2023-03-29T23:21:59.912Z,47.06
2023-03-29T23:24:31.079Z,48.11
2023-03-29T23:27:02.624Z,49.44
2023-03-29T23:29:31.492Z,50.21
2023-03-29T23:32:00.343Z,49.53
2023-03-29T23:34:29.729Z,50.07
2023-03-29T23:36:58.681Z,50.34
2023-03-29T23:39:27.550Z,50.94
2023-03-29T23:41:56.677Z,50.44
2023-03-29T23:44:27.369Z,51.12
2023-03-29T23:46:56.261Z,50.99
2023-03-29T23:49:25.214Z,51.00
2023-03-29T23:51:53.987Z,50.16
2023-03-29T23:54:22.984Z,49.46
2023-03-29T23:56:51.888Z,49.80
2023-03-29T23:59:22.741Z,50.40
